<?xml version="1.0" encoding="UTF-8" standalone="no" ?>
<gpx xmlns="http://www.topografix.com/GPX/1/1" xmlns:xsi="http://www.w3.org/2001/XMLSchema-instance" xsi:schemaLocation="http://www.topografix.com/GPX/1/1 http://www.topografix.com/GPX/1/1/gpx.xsd" version="1.1" creator="VisuGPX - https://www.visugpx.com">
  <metadata>
    <name>Chanonat Nadaillat La Cassière Chadrat Le Crest</name>
    <desc><![CDATA[Un beau parcours de VtT comme on les aime.]]></desc>
  </metadata>
  <trk>
    <name><![CDATA[Enregistrement du 25/02/2022]]></name>
    <extensions>
      <line xmlns="http://www.topografix.com/GPX/gpx_style/0/2">
        <color>0000FF</color>
        <width>4</width>
      </line>
    </extensions>
    <trkseg>
      <trkpt lat="45.71111" lon="3.18677">
        <ele>359.1</ele>
        <time>2022-02-25T11:37:55Z</time>
      </trkpt>
      <trkpt lat="45.71061" lon="3.1868">
        <ele>360.4</ele>
        <time>2022-02-25T11:38:15Z</time>
      </trkpt>
      <trkpt lat="45.71056" lon="3.18594">
        <ele>357.1</ele>
        <time>2022-02-25T11:38:41Z</time>
      </trkpt>
      <trkpt lat="45.71065" lon="3.18495">
        <ele>357</ele>
        <time>2022-02-25T11:39:01Z</time>
      </trkpt>
      <trkpt lat="45.71079" lon="3.18368">
        <ele>356</ele>
        <time>2022-02-25T11:39:26Z</time>
      </trkpt>
      <trkpt lat="45.7105" lon="3.1829">
        <ele>354.6</ele>
        <time>2022-02-25T11:39:46Z</time>
      </trkpt>
      <trkpt lat="45.70972" lon="3.18243">
        <ele>354</ele>
        <time>2022-02-25T11:40:11Z</time>
      </trkpt>
      <trkpt lat="45.7089" lon="3.18216">
        <ele>354.8</ele>
        <time>2022-02-25T11:40:31Z</time>
      </trkpt>
      <trkpt lat="45.70793" lon="3.18228">
        <ele>355.4</ele>
        <time>2022-02-25T11:40:56Z</time>
      </trkpt>
      <trkpt lat="45.7069" lon="3.18266">
        <ele>359.3</ele>
        <time>2022-02-25T11:41:21Z</time>
      </trkpt>
      <trkpt lat="45.70648" lon="3.18207">
        <ele>360.8</ele>
        <time>2022-02-25T11:41:41Z</time>
      </trkpt>
      <trkpt lat="45.70602" lon="3.18086">
        <ele>361.8</ele>
        <time>2022-02-25T11:42:06Z</time>
      </trkpt>
      <trkpt lat="45.70552" lon="3.18002">
        <ele>361.8</ele>
        <time>2022-02-25T11:42:26Z</time>
      </trkpt>
      <trkpt lat="45.70494" lon="3.17881">
        <ele>361.6</ele>
        <time>2022-02-25T11:42:51Z</time>
      </trkpt>
      <trkpt lat="45.70457" lon="3.17749">
        <ele>360.5</ele>
        <time>2022-02-25T11:43:11Z</time>
      </trkpt>
      <trkpt lat="45.7041" lon="3.17606">
        <ele>360.1</ele>
        <time>2022-02-25T11:43:36Z</time>
      </trkpt>
      <trkpt lat="45.70366" lon="3.17503">
        <ele>360.8</ele>
        <time>2022-02-25T11:43:56Z</time>
      </trkpt>
      <trkpt lat="45.70324" lon="3.17365">
        <ele>361</ele>
        <time>2022-02-25T11:44:21Z</time>
      </trkpt>
      <trkpt lat="45.70286" lon="3.17309">
        <ele>361.7</ele>
        <time>2022-02-25T11:44:41Z</time>
      </trkpt>
      <trkpt lat="45.70214" lon="3.17227">
        <ele>362.2</ele>
        <time>2022-02-25T11:45:06Z</time>
      </trkpt>
      <trkpt lat="45.70144" lon="3.17168">
        <ele>362.2</ele>
        <time>2022-02-25T11:45:26Z</time>
      </trkpt>
      <trkpt lat="45.70095" lon="3.17117">
        <ele>362.9</ele>
        <time>2022-02-25T11:45:51Z</time>
      </trkpt>
      <trkpt lat="45.70065" lon="3.17039">
        <ele>363.8</ele>
        <time>2022-02-25T11:46:11Z</time>
      </trkpt>
      <trkpt lat="45.7001" lon="3.16943">
        <ele>364.1</ele>
        <time>2022-02-25T11:46:39Z</time>
      </trkpt>
      <trkpt lat="45.69983" lon="3.16904">
        <ele>364.1</ele>
        <time>2022-02-25T11:47:09Z</time>
      </trkpt>
      <trkpt lat="45.6993" lon="3.16855">
        <ele>364</ele>
        <time>2022-02-25T11:47:34Z</time>
      </trkpt>
      <trkpt lat="45.69859" lon="3.16843">
        <ele>364</ele>
        <time>2022-02-25T11:47:54Z</time>
      </trkpt>
      <trkpt lat="45.69798" lon="3.16707">
        <ele>364.6</ele>
        <time>2022-02-25T11:48:19Z</time>
      </trkpt>
      <trkpt lat="45.69758" lon="3.16601">
        <ele>365</ele>
        <time>2022-02-25T11:48:39Z</time>
      </trkpt>
      <trkpt lat="45.69697" lon="3.16457">
        <ele>365.9</ele>
        <time>2022-02-25T11:49:04Z</time>
      </trkpt>
      <trkpt lat="45.69675" lon="3.16366">
        <ele>367.6</ele>
        <time>2022-02-25T11:49:24Z</time>
      </trkpt>
      <trkpt lat="45.69629" lon="3.16224">
        <ele>367</ele>
        <time>2022-02-25T11:49:49Z</time>
      </trkpt>
      <trkpt lat="45.69587" lon="3.1611">
        <ele>367.9</ele>
        <time>2022-02-25T11:50:09Z</time>
      </trkpt>
      <trkpt lat="45.6963" lon="3.16054">
        <ele>368</ele>
        <time>2022-02-25T11:50:34Z</time>
      </trkpt>
      <trkpt lat="45.69737" lon="3.16054">
        <ele>368</ele>
        <time>2022-02-25T11:50:54Z</time>
      </trkpt>
      <trkpt lat="45.69641" lon="3.16018">
        <ele>368.4</ele>
        <time>2022-02-25T11:51:19Z</time>
      </trkpt>
      <trkpt lat="45.69624" lon="3.15921">
        <ele>370.3</ele>
        <time>2022-02-25T11:51:39Z</time>
      </trkpt>
      <trkpt lat="45.69563" lon="3.15818">
        <ele>370.6</ele>
        <time>2022-02-25T11:52:04Z</time>
      </trkpt>
      <trkpt lat="45.69548" lon="3.15714">
        <ele>371.1</ele>
        <time>2022-02-25T11:52:24Z</time>
      </trkpt>
      <trkpt lat="45.69539" lon="3.15571">
        <ele>373</ele>
        <time>2022-02-25T11:52:49Z</time>
      </trkpt>
      <trkpt lat="45.69522" lon="3.15419">
        <ele>375</ele>
        <time>2022-02-25T11:53:34Z</time>
      </trkpt>
      <trkpt lat="45.69579" lon="3.15214">
        <ele>378</ele>
        <time>2022-02-25T11:53:54Z</time>
      </trkpt>
      <trkpt lat="45.69607" lon="3.15084">
        <ele>380</ele>
        <time>2022-02-25T11:54:19Z</time>
      </trkpt>
      <trkpt lat="45.69606" lon="3.14995">
        <ele>382</ele>
        <time>2022-02-25T11:54:44Z</time>
      </trkpt>
      <trkpt lat="45.69551" lon="3.14946">
        <ele>384.1</ele>
        <time>2022-02-25T11:55:04Z</time>
      </trkpt>
      <trkpt lat="45.69576" lon="3.1491">
        <ele>386.1</ele>
        <time>2022-02-25T11:55:31Z</time>
      </trkpt>
      <trkpt lat="45.69644" lon="3.14888">
        <ele>385.3</ele>
        <time>2022-02-25T11:55:51Z</time>
      </trkpt>
      <trkpt lat="45.69684" lon="3.14802">
        <ele>390.7</ele>
        <time>2022-02-25T11:56:16Z</time>
      </trkpt>
      <trkpt lat="45.69698" lon="3.14691">
        <ele>390</ele>
        <time>2022-02-25T11:56:36Z</time>
      </trkpt>
      <trkpt lat="45.69708" lon="3.14565">
        <ele>390.1</ele>
        <time>2022-02-25T11:57:01Z</time>
      </trkpt>
      <trkpt lat="45.69707" lon="3.14469">
        <ele>392.3</ele>
        <time>2022-02-25T11:57:21Z</time>
      </trkpt>
      <trkpt lat="45.69708" lon="3.14358">
        <ele>395.2</ele>
        <time>2022-02-25T11:57:46Z</time>
      </trkpt>
      <trkpt lat="45.69725" lon="3.14268">
        <ele>396.1</ele>
        <time>2022-02-25T11:58:06Z</time>
      </trkpt>
      <trkpt lat="45.69739" lon="3.14136">
        <ele>398.5</ele>
        <time>2022-02-25T11:58:31Z</time>
      </trkpt>
      <trkpt lat="45.69759" lon="3.14048">
        <ele>400</ele>
        <time>2022-02-25T11:58:51Z</time>
      </trkpt>
      <trkpt lat="45.69783" lon="3.13912">
        <ele>401.6</ele>
        <time>2022-02-25T11:59:16Z</time>
      </trkpt>
      <trkpt lat="45.69812" lon="3.13794">
        <ele>402.4</ele>
        <time>2022-02-25T11:59:36Z</time>
      </trkpt>
      <trkpt lat="45.69856" lon="3.13658">
        <ele>403.4</ele>
        <time>2022-02-25T12:00:01Z</time>
      </trkpt>
      <trkpt lat="45.69862" lon="3.13535">
        <ele>405</ele>
        <time>2022-02-25T12:00:21Z</time>
      </trkpt>
      <trkpt lat="45.69858" lon="3.134">
        <ele>408.1</ele>
        <time>2022-02-25T12:00:46Z</time>
      </trkpt>
      <trkpt lat="45.69862" lon="3.13283">
        <ele>410</ele>
        <time>2022-02-25T12:01:06Z</time>
      </trkpt>
      <trkpt lat="45.69849" lon="3.13141">
        <ele>412.4</ele>
        <time>2022-02-25T12:01:31Z</time>
      </trkpt>
      <trkpt lat="45.69806" lon="3.13056">
        <ele>415</ele>
        <time>2022-02-25T12:01:51Z</time>
      </trkpt>
      <trkpt lat="45.69862" lon="3.13017">
        <ele>418.9</ele>
        <time>2022-02-25T12:02:16Z</time>
      </trkpt>
      <trkpt lat="45.69844" lon="3.12942">
        <ele>426.4</ele>
        <time>2022-02-25T12:02:36Z</time>
      </trkpt>
      <trkpt lat="45.69804" lon="3.12854">
        <ele>430.8</ele>
        <time>2022-02-25T12:03:01Z</time>
      </trkpt>
      <trkpt lat="45.6977" lon="3.12756">
        <ele>429.2</ele>
        <time>2022-02-25T12:03:21Z</time>
      </trkpt>
      <trkpt lat="45.69804" lon="3.12705">
        <ele>439.2</ele>
        <time>2022-02-25T12:03:46Z</time>
      </trkpt>
      <trkpt lat="45.69843" lon="3.12666">
        <ele>442.3</ele>
        <time>2022-02-25T12:04:06Z</time>
      </trkpt>
      <trkpt lat="45.69905" lon="3.12632">
        <ele>444.7</ele>
        <time>2022-02-25T12:04:31Z</time>
      </trkpt>
      <trkpt lat="45.6994" lon="3.12602">
        <ele>447.6</ele>
        <time>2022-02-25T12:04:51Z</time>
      </trkpt>
      <trkpt lat="45.69942" lon="3.12499">
        <ele>444.4</ele>
        <time>2022-02-25T12:05:50Z</time>
      </trkpt>
      <trkpt lat="45.69912" lon="3.1234">
        <ele>439.1</ele>
        <time>2022-02-25T12:06:10Z</time>
      </trkpt>
      <trkpt lat="45.69843" lon="3.12183">
        <ele>436.7</ele>
        <time>2022-02-25T12:06:35Z</time>
      </trkpt>
      <trkpt lat="45.69805" lon="3.1207">
        <ele>439.9</ele>
        <time>2022-02-25T12:06:55Z</time>
      </trkpt>
      <trkpt lat="45.69816" lon="3.11926">
        <ele>444.1</ele>
        <time>2022-02-25T12:07:20Z</time>
      </trkpt>
      <trkpt lat="45.69846" lon="3.11834">
        <ele>446.9</ele>
        <time>2022-02-25T12:07:40Z</time>
      </trkpt>
      <trkpt lat="45.69841" lon="3.11702">
        <ele>452.5</ele>
        <time>2022-02-25T12:08:05Z</time>
      </trkpt>
      <trkpt lat="45.69882" lon="3.11664">
        <ele>456.2</ele>
        <time>2022-02-25T12:08:25Z</time>
      </trkpt>
      <trkpt lat="45.69966" lon="3.1165">
        <ele>457.8</ele>
        <time>2022-02-25T12:08:50Z</time>
      </trkpt>
      <trkpt lat="45.70035" lon="3.11619">
        <ele>462.4</ele>
        <time>2022-02-25T12:09:15Z</time>
      </trkpt>
      <trkpt lat="45.7005" lon="3.11552">
        <ele>469.5</ele>
        <time>2022-02-25T12:09:35Z</time>
      </trkpt>
      <trkpt lat="45.7002" lon="3.11493">
        <ele>477</ele>
        <time>2022-02-25T12:10:00Z</time>
      </trkpt>
      <trkpt lat="45.69984" lon="3.11458">
        <ele>483.8</ele>
        <time>2022-02-25T12:10:20Z</time>
      </trkpt>
      <trkpt lat="45.69948" lon="3.11386">
        <ele>486.6</ele>
        <time>2022-02-25T12:10:45Z</time>
      </trkpt>
      <trkpt lat="45.69915" lon="3.11294">
        <ele>485.2</ele>
        <time>2022-02-25T12:11:05Z</time>
      </trkpt>
      <trkpt lat="45.69859" lon="3.11213">
        <ele>488.4</ele>
        <time>2022-02-25T12:11:30Z</time>
      </trkpt>
      <trkpt lat="45.69837" lon="3.11123">
        <ele>489.3</ele>
        <time>2022-02-25T12:11:50Z</time>
      </trkpt>
      <trkpt lat="45.69811" lon="3.10991">
        <ele>489.2</ele>
        <time>2022-02-25T12:12:15Z</time>
      </trkpt>
      <trkpt lat="45.69751" lon="3.10881">
        <ele>485.7</ele>
        <time>2022-02-25T12:12:35Z</time>
      </trkpt>
      <trkpt lat="45.69689" lon="3.10751">
        <ele>486.2</ele>
        <time>2022-02-25T12:13:00Z</time>
      </trkpt>
      <trkpt lat="45.69648" lon="3.10642">
        <ele>484.9</ele>
        <time>2022-02-25T12:13:20Z</time>
      </trkpt>
      <trkpt lat="45.69595" lon="3.10546">
        <ele>484.2</ele>
        <time>2022-02-25T12:13:45Z</time>
      </trkpt>
      <trkpt lat="45.69563" lon="3.10451">
        <ele>486.2</ele>
        <time>2022-02-25T12:14:05Z</time>
      </trkpt>
      <trkpt lat="45.69524" lon="3.10327">
        <ele>489.9</ele>
        <time>2022-02-25T12:14:30Z</time>
      </trkpt>
      <trkpt lat="45.6947" lon="3.10248">
        <ele>490.8</ele>
        <time>2022-02-25T12:14:50Z</time>
      </trkpt>
      <trkpt lat="45.69414" lon="3.10124">
        <ele>491.5</ele>
        <time>2022-02-25T12:15:15Z</time>
      </trkpt>
      <trkpt lat="45.69359" lon="3.10044">
        <ele>492.5</ele>
        <time>2022-02-25T12:15:35Z</time>
      </trkpt>
      <trkpt lat="45.69274" lon="3.10265">
        <ele>481.5</ele>
        <time>2022-02-25T12:16:00Z</time>
      </trkpt>
      <trkpt lat="45.69218" lon="3.1019">
        <ele>484</ele>
        <time>2022-02-25T12:16:20Z</time>
      </trkpt>
      <trkpt lat="45.69172" lon="3.1002">
        <ele>486.7</ele>
        <time>2022-02-25T12:16:45Z</time>
      </trkpt>
      <trkpt lat="45.6919" lon="3.09883">
        <ele>484.7</ele>
        <time>2022-02-25T12:17:05Z</time>
      </trkpt>
      <trkpt lat="45.69176" lon="3.09754">
        <ele>488.4</ele>
        <time>2022-02-25T12:17:51Z</time>
      </trkpt>
      <trkpt lat="45.69163" lon="3.09689">
        <ele>490.4</ele>
        <time>2022-02-25T12:18:38Z</time>
      </trkpt>
      <trkpt lat="45.69156" lon="3.0959">
        <ele>496.2</ele>
        <time>2022-02-25T12:19:03Z</time>
      </trkpt>
      <trkpt lat="45.69191" lon="3.09536">
        <ele>499.9</ele>
        <time>2022-02-25T12:19:23Z</time>
      </trkpt>
      <trkpt lat="45.69225" lon="3.09476">
        <ele>502.3</ele>
        <time>2022-02-25T12:19:48Z</time>
      </trkpt>
      <trkpt lat="45.6922" lon="3.09396">
        <ele>508.6</ele>
        <time>2022-02-25T12:20:08Z</time>
      </trkpt>
      <trkpt lat="45.69199" lon="3.09297">
        <ele>512.9</ele>
        <time>2022-02-25T12:20:33Z</time>
      </trkpt>
      <trkpt lat="45.69178" lon="3.09209">
        <ele>514.9</ele>
        <time>2022-02-25T12:20:53Z</time>
      </trkpt>
      <trkpt lat="45.69149" lon="3.09094">
        <ele>516.4</ele>
        <time>2022-02-25T12:21:18Z</time>
      </trkpt>
      <trkpt lat="45.69139" lon="3.09">
        <ele>517</ele>
        <time>2022-02-25T12:21:38Z</time>
      </trkpt>
      <trkpt lat="45.69125" lon="3.0892">
        <ele>516.1</ele>
        <time>2022-02-25T12:22:03Z</time>
      </trkpt>
      <trkpt lat="45.691" lon="3.08865">
        <ele>520.3</ele>
        <time>2022-02-25T12:22:23Z</time>
      </trkpt>
      <trkpt lat="45.69067" lon="3.08795">
        <ele>530.6</ele>
        <time>2022-02-25T12:22:49Z</time>
      </trkpt>
      <trkpt lat="45.69075" lon="3.08723">
        <ele>532.1</ele>
        <time>2022-02-25T12:23:14Z</time>
      </trkpt>
      <trkpt lat="45.69069" lon="3.08651">
        <ele>536.2</ele>
        <time>2022-02-25T12:23:34Z</time>
      </trkpt>
      <trkpt lat="45.69058" lon="3.08569">
        <ele>541.4</ele>
        <time>2022-02-25T12:23:59Z</time>
      </trkpt>
      <trkpt lat="45.69048" lon="3.08489">
        <ele>543.1</ele>
        <time>2022-02-25T12:24:19Z</time>
      </trkpt>
      <trkpt lat="45.69035" lon="3.08384">
        <ele>548.5</ele>
        <time>2022-02-25T12:24:44Z</time>
      </trkpt>
      <trkpt lat="45.69018" lon="3.08323">
        <ele>555.7</ele>
        <time>2022-02-25T12:25:04Z</time>
      </trkpt>
      <trkpt lat="45.69011" lon="3.08248">
        <ele>559.8</ele>
        <time>2022-02-25T12:25:29Z</time>
      </trkpt>
      <trkpt lat="45.69001" lon="3.08176">
        <ele>565.5</ele>
        <time>2022-02-25T12:25:49Z</time>
      </trkpt>
      <trkpt lat="45.68999" lon="3.08092">
        <ele>568.8</ele>
        <time>2022-02-25T12:26:14Z</time>
      </trkpt>
      <trkpt lat="45.69009" lon="3.0803">
        <ele>573.5</ele>
        <time>2022-02-25T12:26:34Z</time>
      </trkpt>
      <trkpt lat="45.69018" lon="3.0794">
        <ele>577.7</ele>
        <time>2022-02-25T12:26:59Z</time>
      </trkpt>
      <trkpt lat="45.69035" lon="3.07872">
        <ele>581.7</ele>
        <time>2022-02-25T12:27:19Z</time>
      </trkpt>
      <trkpt lat="45.69044" lon="3.07773">
        <ele>583.9</ele>
        <time>2022-02-25T12:27:44Z</time>
      </trkpt>
      <trkpt lat="45.69044" lon="3.077">
        <ele>587.6</ele>
        <time>2022-02-25T12:28:04Z</time>
      </trkpt>
      <trkpt lat="45.69029" lon="3.07613">
        <ele>598.7</ele>
        <time>2022-02-25T12:28:29Z</time>
      </trkpt>
      <trkpt lat="45.69013" lon="3.07555">
        <ele>604.6</ele>
        <time>2022-02-25T12:28:49Z</time>
      </trkpt>
      <trkpt lat="45.69" lon="3.07472">
        <ele>609</ele>
        <time>2022-02-25T12:29:14Z</time>
      </trkpt>
      <trkpt lat="45.68999" lon="3.07396">
        <ele>611.9</ele>
        <time>2022-02-25T12:29:34Z</time>
      </trkpt>
      <trkpt lat="45.69035" lon="3.07308">
        <ele>614.3</ele>
        <time>2022-02-25T12:29:59Z</time>
      </trkpt>
      <trkpt lat="45.69073" lon="3.07233">
        <ele>613.7</ele>
        <time>2022-02-25T12:30:19Z</time>
      </trkpt>
      <trkpt lat="45.69071" lon="3.07186">
        <ele>616.3</ele>
        <time>2022-02-25T12:30:44Z</time>
      </trkpt>
      <trkpt lat="45.6896" lon="3.07109">
        <ele>639.1</ele>
        <time>2022-02-25T12:31:04Z</time>
      </trkpt>
      <trkpt lat="45.68974" lon="3.06978">
        <ele>642.3</ele>
        <time>2022-02-25T12:38:43Z</time>
      </trkpt>
      <trkpt lat="45.6901" lon="3.06868">
        <ele>646.6</ele>
        <time>2022-02-25T12:39:03Z</time>
      </trkpt>
      <trkpt lat="45.69025" lon="3.06707">
        <ele>665.5</ele>
        <time>2022-02-25T12:39:28Z</time>
      </trkpt>
      <trkpt lat="45.69013" lon="3.06667">
        <ele>673.3</ele>
        <time>2022-02-25T12:39:48Z</time>
      </trkpt>
      <trkpt lat="45.68986" lon="3.06637">
        <ele>679.6</ele>
        <time>2022-02-25T12:40:13Z</time>
      </trkpt>
      <trkpt lat="45.69011" lon="3.06596">
        <ele>678.1</ele>
        <time>2022-02-25T12:40:33Z</time>
      </trkpt>
      <trkpt lat="45.69067" lon="3.0657">
        <ele>676.4</ele>
        <time>2022-02-25T12:40:58Z</time>
      </trkpt>
      <trkpt lat="45.69112" lon="3.06504">
        <ele>673.4</ele>
        <time>2022-02-25T12:41:18Z</time>
      </trkpt>
      <trkpt lat="45.69194" lon="3.06499">
        <ele>659.3</ele>
        <time>2022-02-25T12:41:44Z</time>
      </trkpt>
      <trkpt lat="45.6928" lon="3.06516">
        <ele>637.3</ele>
        <time>2022-02-25T12:42:04Z</time>
      </trkpt>
      <trkpt lat="45.69343" lon="3.06495">
        <ele>630.9</ele>
        <time>2022-02-25T12:42:29Z</time>
      </trkpt>
      <trkpt lat="45.69374" lon="3.06469">
        <ele>621.1</ele>
        <time>2022-02-25T12:42:49Z</time>
      </trkpt>
      <trkpt lat="45.694" lon="3.06409">
        <ele>614.4</ele>
        <time>2022-02-25T12:43:14Z</time>
      </trkpt>
      <trkpt lat="45.69412" lon="3.06214">
        <ele>617.8</ele>
        <time>2022-02-25T12:43:39Z</time>
      </trkpt>
      <trkpt lat="45.69427" lon="3.0615">
        <ele>615.4</ele>
        <time>2022-02-25T12:43:59Z</time>
      </trkpt>
      <trkpt lat="45.69365" lon="3.05892">
        <ele>623.4</ele>
        <time>2022-02-25T12:44:24Z</time>
      </trkpt>
      <trkpt lat="45.69355" lon="3.05643">
        <ele>626.3</ele>
        <time>2022-02-25T12:44:44Z</time>
      </trkpt>
      <trkpt lat="45.69353" lon="3.05607">
        <ele>621.5</ele>
        <time>2022-02-25T12:45:09Z</time>
      </trkpt>
      <trkpt lat="45.69367" lon="3.05594">
        <ele>621.3</ele>
        <time>2022-02-25T12:47:44Z</time>
      </trkpt>
      <trkpt lat="45.69317" lon="3.05482">
        <ele>633.1</ele>
        <time>2022-02-25T12:48:56Z</time>
      </trkpt>
      <trkpt lat="45.69244" lon="3.05379">
        <ele>641</ele>
        <time>2022-02-25T12:49:16Z</time>
      </trkpt>
      <trkpt lat="45.691" lon="3.05178">
        <ele>648.7</ele>
        <time>2022-02-25T12:50:46Z</time>
      </trkpt>
      <trkpt lat="45.69096" lon="3.05083">
        <ele>657.5</ele>
        <time>2022-02-25T12:51:11Z</time>
      </trkpt>
      <trkpt lat="45.69073" lon="3.05012">
        <ele>658.7</ele>
        <time>2022-02-25T12:51:31Z</time>
      </trkpt>
      <trkpt lat="45.69073" lon="3.04925">
        <ele>663.3</ele>
        <time>2022-02-25T12:51:58Z</time>
      </trkpt>
      <trkpt lat="45.69088" lon="3.04849">
        <ele>674.5</ele>
        <time>2022-02-25T12:52:18Z</time>
      </trkpt>
      <trkpt lat="45.69105" lon="3.0474">
        <ele>673.1</ele>
        <time>2022-02-25T12:52:44Z</time>
      </trkpt>
      <trkpt lat="45.69089" lon="3.04675">
        <ele>669.1</ele>
        <time>2022-02-25T12:53:04Z</time>
      </trkpt>
      <trkpt lat="45.69131" lon="3.04574">
        <ele>681.7</ele>
        <time>2022-02-25T12:56:10Z</time>
      </trkpt>
      <trkpt lat="45.69149" lon="3.04518">
        <ele>687.7</ele>
        <time>2022-02-25T12:56:38Z</time>
      </trkpt>
      <trkpt lat="45.69167" lon="3.04428">
        <ele>688.7</ele>
        <time>2022-02-25T12:57:08Z</time>
      </trkpt>
      <trkpt lat="45.69154" lon="3.04386">
        <ele>690.9</ele>
        <time>2022-02-25T12:57:31Z</time>
      </trkpt>
      <trkpt lat="45.69197" lon="3.04351">
        <ele>700.4</ele>
      </trkpt>
      <trkpt lat="45.69157" lon="3.04263">
        <ele>709.8</ele>
        <time>2022-02-25T12:57:56Z</time>
      </trkpt>
      <trkpt lat="45.69202" lon="3.04242">
        <ele>721.2</ele>
        <time>2022-02-25T12:58:33Z</time>
      </trkpt>
      <trkpt lat="45.69251" lon="3.04289">
        <ele>728.8</ele>
        <time>2022-02-25T12:59:06Z</time>
      </trkpt>
      <trkpt lat="45.69279" lon="3.04317">
        <ele>732.8</ele>
        <time>2022-02-25T12:59:26Z</time>
      </trkpt>
      <trkpt lat="45.69327" lon="3.04335">
        <ele>738.3</ele>
        <time>2022-02-25T12:59:52Z</time>
      </trkpt>
      <trkpt lat="45.694" lon="3.04405">
        <ele>753</ele>
        <time>2022-02-25T13:00:19Z</time>
      </trkpt>
      <trkpt lat="45.69376" lon="3.04469">
        <ele>759.5</ele>
        <time>2022-02-25T13:00:52Z</time>
      </trkpt>
      <trkpt lat="45.69387" lon="3.04479">
        <ele>764.1</ele>
        <time>2022-02-25T13:01:19Z</time>
      </trkpt>
      <trkpt lat="45.69425" lon="3.04491">
        <ele>773.4</ele>
        <time>2022-02-25T13:01:39Z</time>
      </trkpt>
      <trkpt lat="45.69473" lon="3.04473">
        <ele>780.3</ele>
        <time>2022-02-25T13:02:10Z</time>
      </trkpt>
      <trkpt lat="45.6949" lon="3.04514">
        <ele>785.9</ele>
        <time>2022-02-25T13:02:35Z</time>
      </trkpt>
      <trkpt lat="45.6953" lon="3.04498">
        <ele>788.9</ele>
        <time>2022-02-25T13:07:17Z</time>
      </trkpt>
      <trkpt lat="45.69544" lon="3.04445">
        <ele>790</ele>
        <time>2022-02-25T13:07:42Z</time>
      </trkpt>
      <trkpt lat="45.69558" lon="3.04378">
        <ele>794.3</ele>
        <time>2022-02-25T13:08:09Z</time>
      </trkpt>
      <trkpt lat="45.69555" lon="3.04321">
        <ele>797.4</ele>
        <time>2022-02-25T13:08:29Z</time>
      </trkpt>
      <trkpt lat="45.6954" lon="3.04254">
        <ele>801.4</ele>
        <time>2022-02-25T13:08:58Z</time>
      </trkpt>
      <trkpt lat="45.69533" lon="3.04192">
        <ele>805</ele>
        <time>2022-02-25T13:09:18Z</time>
      </trkpt>
      <trkpt lat="45.6952" lon="3.04124">
        <ele>809.5</ele>
        <time>2022-02-25T13:09:44Z</time>
      </trkpt>
      <trkpt lat="45.69523" lon="3.04066">
        <ele>812.5</ele>
        <time>2022-02-25T13:10:07Z</time>
      </trkpt>
      <trkpt lat="45.6952" lon="3.03993">
        <ele>817.7</ele>
        <time>2022-02-25T13:10:34Z</time>
      </trkpt>
      <trkpt lat="45.69514" lon="3.03935">
        <ele>821.7</ele>
        <time>2022-02-25T13:10:54Z</time>
      </trkpt>
      <trkpt lat="45.69497" lon="3.03862">
        <ele>826</ele>
        <time>2022-02-25T13:11:26Z</time>
      </trkpt>
      <trkpt lat="45.69489" lon="3.03804">
        <ele>828.9</ele>
        <time>2022-02-25T13:11:46Z</time>
      </trkpt>
      <trkpt lat="45.69459" lon="3.03746">
        <ele>833.4</ele>
        <time>2022-02-25T13:12:15Z</time>
      </trkpt>
      <trkpt lat="45.69429" lon="3.03707">
        <ele>840.9</ele>
        <time>2022-02-25T13:12:38Z</time>
      </trkpt>
      <trkpt lat="45.69398" lon="3.03653">
        <ele>847.3</ele>
        <time>2022-02-25T13:13:11Z</time>
      </trkpt>
      <trkpt lat="45.69376" lon="3.03604">
        <ele>852.8</ele>
        <time>2022-02-25T13:13:34Z</time>
      </trkpt>
      <trkpt lat="45.69351" lon="3.03541">
        <ele>859.3</ele>
        <time>2022-02-25T13:13:59Z</time>
      </trkpt>
      <trkpt lat="45.69325" lon="3.03497">
        <ele>863.8</ele>
        <time>2022-02-25T13:14:20Z</time>
      </trkpt>
      <trkpt lat="45.69278" lon="3.03463">
        <ele>870.6</ele>
        <time>2022-02-25T13:14:46Z</time>
      </trkpt>
      <trkpt lat="45.69245" lon="3.03433">
        <ele>875.1</ele>
        <time>2022-02-25T13:15:06Z</time>
      </trkpt>
      <trkpt lat="45.69199" lon="3.03413">
        <ele>878.9</ele>
        <time>2022-02-25T13:15:32Z</time>
      </trkpt>
      <trkpt lat="45.69195" lon="3.03419">
        <ele>878.7</ele>
        <time>2022-02-25T13:16:04Z</time>
      </trkpt>
      <trkpt lat="45.69159" lon="3.03398">
        <ele>881.3</ele>
        <time>2022-02-25T13:16:34Z</time>
      </trkpt>
      <trkpt lat="45.69121" lon="3.03401">
        <ele>883</ele>
        <time>2022-02-25T13:17:03Z</time>
      </trkpt>
      <trkpt lat="45.69066" lon="3.03411">
        <ele>885.6</ele>
        <time>2022-02-25T13:17:30Z</time>
      </trkpt>
      <trkpt lat="45.69031" lon="3.03394">
        <ele>889.4</ele>
        <time>2022-02-25T13:17:51Z</time>
      </trkpt>
      <trkpt lat="45.6901" lon="3.03326">
        <ele>892.4</ele>
        <time>2022-02-25T13:18:21Z</time>
      </trkpt>
      <trkpt lat="45.69031" lon="3.0328">
        <ele>896.6</ele>
        <time>2022-02-25T13:18:41Z</time>
      </trkpt>
      <trkpt lat="45.6906" lon="3.0322">
        <ele>899.1</ele>
        <time>2022-02-25T13:19:07Z</time>
      </trkpt>
      <trkpt lat="45.69084" lon="3.03174">
        <ele>902.2</ele>
        <time>2022-02-25T13:19:27Z</time>
      </trkpt>
      <trkpt lat="45.69123" lon="3.03108">
        <ele>908</ele>
        <time>2022-02-25T13:19:52Z</time>
      </trkpt>
      <trkpt lat="45.69107" lon="3.03029">
        <ele>914.9</ele>
        <time>2022-02-25T13:20:17Z</time>
      </trkpt>
      <trkpt lat="45.69112" lon="3.02996">
        <ele>920.4</ele>
        <time>2022-02-25T13:20:43Z</time>
      </trkpt>
      <trkpt lat="45.69153" lon="3.02941">
        <ele>925.9</ele>
        <time>2022-02-25T13:21:09Z</time>
      </trkpt>
      <trkpt lat="45.69178" lon="3.02879">
        <ele>933.7</ele>
        <time>2022-02-25T13:21:29Z</time>
      </trkpt>
      <trkpt lat="45.69212" lon="3.02813">
        <ele>941.9</ele>
        <time>2022-02-25T13:21:54Z</time>
      </trkpt>
      <trkpt lat="45.69238" lon="3.02761">
        <ele>946.9</ele>
        <time>2022-02-25T13:22:14Z</time>
      </trkpt>
      <trkpt lat="45.69268" lon="3.02691">
        <ele>951.9</ele>
        <time>2022-02-25T13:22:39Z</time>
      </trkpt>
      <trkpt lat="45.69287" lon="3.02641">
        <ele>953.9</ele>
        <time>2022-02-25T13:22:59Z</time>
      </trkpt>
      <trkpt lat="45.69314" lon="3.02586">
        <ele>955.9</ele>
        <time>2022-02-25T13:23:25Z</time>
      </trkpt>
      <trkpt lat="45.6934" lon="3.02545">
        <ele>957.9</ele>
        <time>2022-02-25T13:23:46Z</time>
      </trkpt>
      <trkpt lat="45.69364" lon="3.02484">
        <ele>960.5</ele>
        <time>2022-02-25T13:24:11Z</time>
      </trkpt>
      <trkpt lat="45.69371" lon="3.0243">
        <ele>964.2</ele>
        <time>2022-02-25T13:24:32Z</time>
      </trkpt>
      <trkpt lat="45.69375" lon="3.02362">
        <ele>969.5</ele>
        <time>2022-02-25T13:25:04Z</time>
      </trkpt>
      <trkpt lat="45.69377" lon="3.02307">
        <ele>973.2</ele>
        <time>2022-02-25T13:25:27Z</time>
      </trkpt>
      <trkpt lat="45.69366" lon="3.02239">
        <ele>978.9</ele>
        <time>2022-02-25T13:25:57Z</time>
      </trkpt>
      <trkpt lat="45.69362" lon="3.02184">
        <ele>981.3</ele>
        <time>2022-02-25T13:26:20Z</time>
      </trkpt>
      <trkpt lat="45.69359" lon="3.02107">
        <ele>983.3</ele>
        <time>2022-02-25T13:26:45Z</time>
      </trkpt>
      <trkpt lat="45.69358" lon="3.02047">
        <ele>984.6</ele>
        <time>2022-02-25T13:27:05Z</time>
      </trkpt>
      <trkpt lat="45.69358" lon="3.01955">
        <ele>986.1</ele>
        <time>2022-02-25T13:27:30Z</time>
      </trkpt>
      <trkpt lat="45.69357" lon="3.01878">
        <ele>988.1</ele>
        <time>2022-02-25T13:27:50Z</time>
      </trkpt>
      <trkpt lat="45.69362" lon="3.01792">
        <ele>991.9</ele>
        <time>2022-02-25T13:28:15Z</time>
      </trkpt>
      <trkpt lat="45.69372" lon="3.01734">
        <ele>995.3</ele>
        <time>2022-02-25T13:28:59Z</time>
      </trkpt>
      <trkpt lat="45.6938" lon="3.0166">
        <ele>999.4</ele>
        <time>2022-02-25T13:30:31Z</time>
      </trkpt>
      <trkpt lat="45.69375" lon="3.01597">
        <ele>1003.5</ele>
        <time>2022-02-25T13:30:51Z</time>
      </trkpt>
      <trkpt lat="45.69359" lon="3.01506">
        <ele>1003.1</ele>
        <time>2022-02-25T13:31:16Z</time>
      </trkpt>
      <trkpt lat="45.69341" lon="3.01425">
        <ele>1004.1</ele>
        <time>2022-02-25T13:31:36Z</time>
      </trkpt>
      <trkpt lat="45.69333" lon="3.01332">
        <ele>1010.1</ele>
        <time>2022-02-25T13:32:01Z</time>
      </trkpt>
      <trkpt lat="45.69341" lon="3.01261">
        <ele>1016.3</ele>
        <time>2022-02-25T13:32:23Z</time>
      </trkpt>
      <trkpt lat="45.69354" lon="3.01194">
        <ele>1024.3</ele>
        <time>2022-02-25T13:32:49Z</time>
      </trkpt>
      <trkpt lat="45.69363" lon="3.01121">
        <ele>1030.6</ele>
        <time>2022-02-25T13:33:10Z</time>
      </trkpt>
      <trkpt lat="45.69337" lon="3.01013">
        <ele>1027.3</ele>
        <time>2022-02-25T13:33:35Z</time>
      </trkpt>
      <trkpt lat="45.6926" lon="3.00922">
        <ele>1029.8</ele>
        <time>2022-02-25T13:33:55Z</time>
      </trkpt>
      <trkpt lat="45.69275" lon="3.00843">
        <ele>1025.5</ele>
        <time>2022-02-25T13:34:20Z</time>
      </trkpt>
      <trkpt lat="45.69302" lon="3.00726">
        <ele>1014.4</ele>
        <time>2022-02-25T13:34:40Z</time>
      </trkpt>
      <trkpt lat="45.69314" lon="3.00614">
        <ele>1002</ele>
        <time>2022-02-25T13:35:06Z</time>
      </trkpt>
      <trkpt lat="45.69275" lon="3.00487">
        <ele>979.3</ele>
        <time>2022-02-25T13:35:31Z</time>
      </trkpt>
      <trkpt lat="45.69249" lon="3.00491">
        <ele>977.6</ele>
        <time>2022-02-25T13:35:51Z</time>
      </trkpt>
      <trkpt lat="45.69204" lon="3.00551">
        <ele>981.1</ele>
        <time>2022-02-25T13:36:16Z</time>
      </trkpt>
      <trkpt lat="45.69169" lon="3.00593">
        <ele>984.4</ele>
        <time>2022-02-25T13:36:36Z</time>
      </trkpt>
      <trkpt lat="45.69122" lon="3.00652">
        <ele>992.6</ele>
        <time>2022-02-25T13:37:01Z</time>
      </trkpt>
      <trkpt lat="45.69095" lon="3.00701">
        <ele>999.8</ele>
        <time>2022-02-25T13:37:25Z</time>
      </trkpt>
      <trkpt lat="45.69053" lon="3.00751">
        <ele>1005.1</ele>
        <time>2022-02-25T13:37:50Z</time>
      </trkpt>
      <trkpt lat="45.69017" lon="3.00794">
        <ele>1009.5</ele>
        <time>2022-02-25T13:38:10Z</time>
      </trkpt>
      <trkpt lat="45.68969" lon="3.00867">
        <ele>1017.3</ele>
        <time>2022-02-25T13:38:35Z</time>
      </trkpt>
      <trkpt lat="45.68942" lon="3.00941">
        <ele>1020.6</ele>
        <time>2022-02-25T13:38:55Z</time>
      </trkpt>
      <trkpt lat="45.68913" lon="3.01031">
        <ele>1021.7</ele>
        <time>2022-02-25T13:40:48Z</time>
      </trkpt>
      <trkpt lat="45.68902" lon="3.01132">
        <ele>1023.2</ele>
        <time>2022-02-25T13:41:08Z</time>
      </trkpt>
      <trkpt lat="45.68885" lon="3.01252">
        <ele>1023.6</ele>
        <time>2022-02-25T13:41:33Z</time>
      </trkpt>
      <trkpt lat="45.68868" lon="3.01351">
        <ele>1022.7</ele>
        <time>2022-02-25T13:41:53Z</time>
      </trkpt>
      <trkpt lat="45.68841" lon="3.01479">
        <ele>1019.6</ele>
        <time>2022-02-25T13:42:18Z</time>
      </trkpt>
      <trkpt lat="45.68809" lon="3.01578">
        <ele>1014.6</ele>
        <time>2022-02-25T13:42:38Z</time>
      </trkpt>
      <trkpt lat="45.68787" lon="3.01672">
        <ele>1011.5</ele>
        <time>2022-02-25T13:43:05Z</time>
      </trkpt>
      <trkpt lat="45.6876" lon="3.01733">
        <ele>1007.1</ele>
        <time>2022-02-25T13:43:26Z</time>
      </trkpt>
      <trkpt lat="45.68747" lon="3.01839">
        <ele>1001.5</ele>
        <time>2022-02-25T13:43:51Z</time>
      </trkpt>
      <trkpt lat="45.68733" lon="3.01921">
        <ele>995.6</ele>
        <time>2022-02-25T13:44:11Z</time>
      </trkpt>
      <trkpt lat="45.68706" lon="3.02063">
        <ele>985.7</ele>
        <time>2022-02-25T13:44:36Z</time>
      </trkpt>
      <trkpt lat="45.68692" lon="3.02198">
        <ele>978.6</ele>
        <time>2022-02-25T13:44:56Z</time>
      </trkpt>
      <trkpt lat="45.68714" lon="3.0237">
        <ele>971.6</ele>
        <time>2022-02-25T13:45:21Z</time>
      </trkpt>
      <trkpt lat="45.68716" lon="3.02502">
        <ele>964.9</ele>
        <time>2022-02-25T13:45:41Z</time>
      </trkpt>
      <trkpt lat="45.68687" lon="3.02638">
        <ele>956.3</ele>
        <time>2022-02-25T13:46:06Z</time>
      </trkpt>
      <trkpt lat="45.68667" lon="3.02725">
        <ele>951.8</ele>
        <time>2022-02-25T13:46:26Z</time>
      </trkpt>
      <trkpt lat="45.68594" lon="3.02859">
        <ele>946.3</ele>
        <time>2022-02-25T13:46:51Z</time>
      </trkpt>
      <trkpt lat="45.68539" lon="3.02978">
        <ele>942.4</ele>
        <time>2022-02-25T13:47:11Z</time>
      </trkpt>
      <trkpt lat="45.6848" lon="3.02965">
        <ele>944</ele>
        <time>2022-02-25T13:47:36Z</time>
      </trkpt>
      <trkpt lat="45.68434" lon="3.02945">
        <ele>947.3</ele>
        <time>2022-02-25T13:47:56Z</time>
      </trkpt>
      <trkpt lat="45.68378" lon="3.02902">
        <ele>951</ele>
        <time>2022-02-25T13:48:21Z</time>
      </trkpt>
      <trkpt lat="45.68342" lon="3.0284">
        <ele>951.7</ele>
        <time>2022-02-25T13:48:41Z</time>
      </trkpt>
      <trkpt lat="45.68295" lon="3.02751">
        <ele>952.4</ele>
        <time>2022-02-25T13:49:06Z</time>
      </trkpt>
      <trkpt lat="45.68267" lon="3.02673">
        <ele>953</ele>
        <time>2022-02-25T13:49:26Z</time>
      </trkpt>
      <trkpt lat="45.68223" lon="3.02585">
        <ele>953.9</ele>
        <time>2022-02-25T13:49:51Z</time>
      </trkpt>
      <trkpt lat="45.68184" lon="3.02592">
        <ele>951.4</ele>
        <time>2022-02-25T13:50:16Z</time>
      </trkpt>
      <trkpt lat="45.68158" lon="3.02663">
        <ele>952.8</ele>
        <time>2022-02-25T13:50:36Z</time>
      </trkpt>
      <trkpt lat="45.68145" lon="3.02766">
        <ele>956.2</ele>
        <time>2022-02-25T13:51:01Z</time>
      </trkpt>
      <trkpt lat="45.68151" lon="3.02881">
        <ele>952.7</ele>
        <time>2022-02-25T13:51:21Z</time>
      </trkpt>
      <trkpt lat="45.68167" lon="3.0301">
        <ele>951.4</ele>
        <time>2022-02-25T13:51:46Z</time>
      </trkpt>
      <trkpt lat="45.6816" lon="3.0319">
        <ele>945.3</ele>
        <time>2022-02-25T13:52:06Z</time>
      </trkpt>
      <trkpt lat="45.68184" lon="3.03347">
        <ele>935.4</ele>
        <time>2022-02-25T13:52:31Z</time>
      </trkpt>
      <trkpt lat="45.68161" lon="3.03397">
        <ele>931.3</ele>
      </trkpt>
      <trkpt lat="45.6809" lon="3.034">
        <ele>924</ele>
        <time>2022-02-25T13:52:51Z</time>
      </trkpt>
      <trkpt lat="45.68064" lon="3.03442">
        <ele>921.9</ele>
      </trkpt>
      <trkpt lat="45.68077" lon="3.0353">
        <ele>921.3</ele>
        <time>2022-02-25T13:53:16Z</time>
      </trkpt>
      <trkpt lat="45.68049" lon="3.03692">
        <ele>913.4</ele>
        <time>2022-02-25T13:53:36Z</time>
      </trkpt>
      <trkpt lat="45.68046" lon="3.03877">
        <ele>908.4</ele>
        <time>2022-02-25T13:54:01Z</time>
      </trkpt>
      <trkpt lat="45.68018" lon="3.03958">
        <ele>903.2</ele>
        <time>2022-02-25T13:54:21Z</time>
      </trkpt>
      <trkpt lat="45.68016" lon="3.04111">
        <ele>900.2</ele>
        <time>2022-02-25T13:54:46Z</time>
      </trkpt>
      <trkpt lat="45.68032" lon="3.04235">
        <ele>896.5</ele>
        <time>2022-02-25T13:55:06Z</time>
      </trkpt>
      <trkpt lat="45.68077" lon="3.04304">
        <ele>893.1</ele>
        <time>2022-02-25T13:55:31Z</time>
      </trkpt>
      <trkpt lat="45.68118" lon="3.04529">
        <ele>875.1</ele>
        <time>2022-02-25T13:55:51Z</time>
      </trkpt>
      <trkpt lat="45.68046" lon="3.04757">
        <ele>853.5</ele>
        <time>2022-02-25T13:56:16Z</time>
      </trkpt>
      <trkpt lat="45.68" lon="3.04924">
        <ele>845.7</ele>
        <time>2022-02-25T13:56:36Z</time>
      </trkpt>
      <trkpt lat="45.68041" lon="3.04987">
        <ele>842.5</ele>
        <time>2022-02-25T13:57:01Z</time>
      </trkpt>
      <trkpt lat="45.68135" lon="3.0509">
        <ele>833.5</ele>
        <time>2022-02-25T13:57:21Z</time>
      </trkpt>
      <trkpt lat="45.68218" lon="3.05139">
        <ele>832.9</ele>
        <time>2022-02-25T13:57:46Z</time>
      </trkpt>
      <trkpt lat="45.68242" lon="3.05227">
        <ele>825.6</ele>
      </trkpt>
      <trkpt lat="45.68257" lon="3.05347">
        <ele>815.6</ele>
        <time>2022-02-25T13:58:06Z</time>
      </trkpt>
      <trkpt lat="45.68299" lon="3.05441">
        <ele>813.5</ele>
        <time>2022-02-25T13:58:31Z</time>
      </trkpt>
      <trkpt lat="45.68356" lon="3.0545">
        <ele>809.9</ele>
      </trkpt>
      <trkpt lat="45.68404" lon="3.05502">
        <ele>803.8</ele>
        <time>2022-02-25T13:58:51Z</time>
      </trkpt>
      <trkpt lat="45.6846" lon="3.05699">
        <ele>789.2</ele>
      </trkpt>
      <trkpt lat="45.68454" lon="3.05755">
        <ele>785.8</ele>
        <time>2022-02-25T13:59:16Z</time>
      </trkpt>
      <trkpt lat="45.68418" lon="3.05733">
        <ele>788.2</ele>
        <time>2022-02-25T13:59:55Z</time>
      </trkpt>
      <trkpt lat="45.68366" lon="3.05719">
        <ele>791.1</ele>
        <time>2022-02-25T14:00:22Z</time>
      </trkpt>
      <trkpt lat="45.68308" lon="3.05703">
        <ele>791.2</ele>
        <time>2022-02-25T14:00:42Z</time>
      </trkpt>
      <trkpt lat="45.68226" lon="3.05617">
        <ele>776.1</ele>
        <time>2022-02-25T14:01:07Z</time>
      </trkpt>
      <trkpt lat="45.68169" lon="3.05544">
        <ele>772.3</ele>
        <time>2022-02-25T14:01:27Z</time>
      </trkpt>
      <trkpt lat="45.68182" lon="3.05471">
        <ele>781.1</ele>
        <time>2022-02-25T14:01:54Z</time>
      </trkpt>
      <trkpt lat="45.68208" lon="3.05402">
        <ele>789.4</ele>
        <time>2022-02-25T14:02:14Z</time>
      </trkpt>
      <trkpt lat="45.68202" lon="3.05313">
        <ele>793.3</ele>
        <time>2022-02-25T14:02:39Z</time>
      </trkpt>
      <trkpt lat="45.68133" lon="3.05233">
        <ele>791.5</ele>
        <time>2022-02-25T14:02:59Z</time>
      </trkpt>
      <trkpt lat="45.68063" lon="3.05162">
        <ele>795.1</ele>
      </trkpt>
      <trkpt lat="45.67952" lon="3.05092">
        <ele>795.2</ele>
        <time>2022-02-25T14:04:09Z</time>
      </trkpt>
      <trkpt lat="45.67904" lon="3.05124">
        <ele>784.3</ele>
      </trkpt>
      <trkpt lat="45.67893" lon="3.05166">
        <ele>778.5</ele>
        <time>2022-02-25T14:04:43Z</time>
      </trkpt>
      <trkpt lat="45.67881" lon="3.05228">
        <ele>766.9</ele>
        <time>2022-02-25T14:05:29Z</time>
      </trkpt>
      <trkpt lat="45.67938" lon="3.05452">
        <ele>735.6</ele>
        <time>2022-02-25T14:05:54Z</time>
      </trkpt>
      <trkpt lat="45.67905" lon="3.0574">
        <ele>715.3</ele>
        <time>2022-02-25T14:06:14Z</time>
      </trkpt>
      <trkpt lat="45.67917" lon="3.05892">
        <ele>709.8</ele>
        <time>2022-02-25T14:08:09Z</time>
      </trkpt>
      <trkpt lat="45.67902" lon="3.05984">
        <ele>704.2</ele>
        <time>2022-02-25T14:08:29Z</time>
      </trkpt>
      <trkpt lat="45.67925" lon="3.0607">
        <ele>701.1</ele>
      </trkpt>
      <trkpt lat="45.67853" lon="3.062">
        <ele>682.6</ele>
        <time>2022-02-25T14:08:54Z</time>
      </trkpt>
      <trkpt lat="45.6786" lon="3.06285">
        <ele>678.6</ele>
      </trkpt>
      <trkpt lat="45.67781" lon="3.0645">
        <ele>673</ele>
        <time>2022-02-25T14:09:14Z</time>
      </trkpt>
      <trkpt lat="45.67686" lon="3.06467">
        <ele>673.1</ele>
        <time>2022-02-25T14:09:39Z</time>
      </trkpt>
      <trkpt lat="45.6767" lon="3.06563">
        <ele>677.4</ele>
        <time>2022-02-25T14:09:59Z</time>
      </trkpt>
      <trkpt lat="45.67633" lon="3.06701">
        <ele>676.2</ele>
        <time>2022-02-25T14:10:24Z</time>
      </trkpt>
      <trkpt lat="45.6761" lon="3.06823">
        <ele>676.6</ele>
        <time>2022-02-25T14:10:44Z</time>
      </trkpt>
      <trkpt lat="45.6761" lon="3.06978">
        <ele>677</ele>
        <time>2022-02-25T14:11:09Z</time>
      </trkpt>
      <trkpt lat="45.67599" lon="3.07117">
        <ele>674.4</ele>
        <time>2022-02-25T14:11:29Z</time>
      </trkpt>
      <trkpt lat="45.67574" lon="3.07263">
        <ele>667.7</ele>
      </trkpt>
      <trkpt lat="45.6754" lon="3.07352">
        <ele>660.3</ele>
        <time>2022-02-25T14:11:54Z</time>
      </trkpt>
      <trkpt lat="45.67506" lon="3.07499">
        <ele>646.4</ele>
        <time>2022-02-25T14:12:14Z</time>
      </trkpt>
      <trkpt lat="45.67544" lon="3.07566">
        <ele>643.5</ele>
        <time>2022-02-25T14:12:39Z</time>
      </trkpt>
      <trkpt lat="45.67448" lon="3.07735">
        <ele>638.1</ele>
        <time>2022-02-25T14:12:59Z</time>
      </trkpt>
      <trkpt lat="45.67395" lon="3.07984">
        <ele>622.6</ele>
        <time>2022-02-25T14:13:24Z</time>
      </trkpt>
      <trkpt lat="45.67421" lon="3.0813">
        <ele>611.2</ele>
        <time>2022-02-25T14:13:44Z</time>
      </trkpt>
      <trkpt lat="45.67452" lon="3.08197">
        <ele>609.4</ele>
        <time>2022-02-25T14:14:19Z</time>
      </trkpt>
      <trkpt lat="45.6749" lon="3.08169">
        <ele>616.6</ele>
      </trkpt>
      <trkpt lat="45.67505" lon="3.0821">
        <ele>616.4</ele>
        <time>2022-02-25T14:15:48Z</time>
      </trkpt>
      <trkpt lat="45.67536" lon="3.08301">
        <ele>619.4</ele>
        <time>2022-02-25T14:16:13Z</time>
      </trkpt>
      <trkpt lat="45.67561" lon="3.08378">
        <ele>624.1</ele>
        <time>2022-02-25T14:16:33Z</time>
      </trkpt>
      <trkpt lat="45.67586" lon="3.08455">
        <ele>632.1</ele>
        <time>2022-02-25T14:17:00Z</time>
      </trkpt>
      <trkpt lat="45.67614" lon="3.08509">
        <ele>638</ele>
        <time>2022-02-25T14:17:21Z</time>
      </trkpt>
      <trkpt lat="45.67645" lon="3.08566">
        <ele>643.9</ele>
        <time>2022-02-25T14:17:46Z</time>
      </trkpt>
      <trkpt lat="45.67674" lon="3.08604">
        <ele>650.5</ele>
        <time>2022-02-25T14:18:07Z</time>
      </trkpt>
      <trkpt lat="45.67719" lon="3.08633">
        <ele>658.3</ele>
        <time>2022-02-25T14:18:32Z</time>
      </trkpt>
      <trkpt lat="45.67748" lon="3.08658">
        <ele>663.5</ele>
        <time>2022-02-25T14:19:01Z</time>
      </trkpt>
      <trkpt lat="45.67771" lon="3.08731">
        <ele>672.2</ele>
        <time>2022-02-25T14:19:25Z</time>
      </trkpt>
      <trkpt lat="45.67794" lon="3.08752">
        <ele>679.4</ele>
        <time>2022-02-25T14:19:57Z</time>
      </trkpt>
      <trkpt lat="45.67815" lon="3.0884">
        <ele>691.8</ele>
        <time>2022-02-25T14:20:22Z</time>
      </trkpt>
      <trkpt lat="45.67827" lon="3.08919">
        <ele>690.3</ele>
        <time>2022-02-25T14:20:48Z</time>
      </trkpt>
      <trkpt lat="45.6785" lon="3.0899">
        <ele>689.4</ele>
        <time>2022-02-25T14:21:08Z</time>
      </trkpt>
      <trkpt lat="45.67878" lon="3.09101">
        <ele>687.7</ele>
        <time>2022-02-25T14:21:33Z</time>
      </trkpt>
      <trkpt lat="45.67899" lon="3.09234">
        <ele>685.8</ele>
        <time>2022-02-25T14:21:53Z</time>
      </trkpt>
      <trkpt lat="45.67956" lon="3.09379">
        <ele>684.9</ele>
        <time>2022-02-25T14:22:18Z</time>
      </trkpt>
      <trkpt lat="45.67953" lon="3.09516">
        <ele>682.7</ele>
        <time>2022-02-25T14:22:38Z</time>
      </trkpt>
      <trkpt lat="45.67932" lon="3.09588">
        <ele>676.3</ele>
        <time>2022-02-25T14:23:03Z</time>
      </trkpt>
      <trkpt lat="45.67939" lon="3.09658">
        <ele>679.9</ele>
        <time>2022-02-25T14:23:23Z</time>
      </trkpt>
      <trkpt lat="45.67975" lon="3.09701">
        <ele>679.7</ele>
        <time>2022-02-25T14:23:51Z</time>
      </trkpt>
      <trkpt lat="45.6798" lon="3.09666">
        <ele>680</ele>
      </trkpt>
      <trkpt lat="45.67965" lon="3.0987">
        <ele>677</ele>
        <time>2022-02-25T14:24:36Z</time>
      </trkpt>
      <trkpt lat="45.67961" lon="3.09969">
        <ele>676</ele>
        <time>2022-02-25T14:24:56Z</time>
      </trkpt>
      <trkpt lat="45.67955" lon="3.10072">
        <ele>674.9</ele>
        <time>2022-02-25T14:25:21Z</time>
      </trkpt>
      <trkpt lat="45.68015" lon="3.10317">
        <ele>671</ele>
        <time>2022-02-25T14:25:41Z</time>
      </trkpt>
      <trkpt lat="45.68293" lon="3.11271">
        <ele>652.6</ele>
        <time>2022-02-25T14:28:41Z</time>
      </trkpt>
      <trkpt lat="45.68365" lon="3.11359">
        <ele>648.1</ele>
        <time>2022-02-25T14:29:06Z</time>
      </trkpt>
      <trkpt lat="45.6841" lon="3.1156">
        <ele>647.5</ele>
        <time>2022-02-25T14:29:51Z</time>
      </trkpt>
      <trkpt lat="45.6846" lon="3.11698">
        <ele>646.5</ele>
        <time>2022-02-25T14:30:11Z</time>
      </trkpt>
      <trkpt lat="45.68501" lon="3.11818">
        <ele>643.3</ele>
        <time>2022-02-25T14:31:05Z</time>
      </trkpt>
      <trkpt lat="45.68512" lon="3.11917">
        <ele>642.1</ele>
        <time>2022-02-25T14:31:25Z</time>
      </trkpt>
      <trkpt lat="45.68527" lon="3.12019">
        <ele>638.4</ele>
        <time>2022-02-25T14:32:17Z</time>
      </trkpt>
      <trkpt lat="45.68535" lon="3.12117">
        <ele>632.3</ele>
        <time>2022-02-25T14:32:37Z</time>
      </trkpt>
      <trkpt lat="45.68514" lon="3.12261">
        <ele>620</ele>
        <time>2022-02-25T14:33:02Z</time>
      </trkpt>
      <trkpt lat="45.68467" lon="3.12342">
        <ele>608.6</ele>
        <time>2022-02-25T14:33:29Z</time>
      </trkpt>
      <trkpt lat="45.68462" lon="3.12407">
        <ele>599.7</ele>
        <time>2022-02-25T14:33:49Z</time>
      </trkpt>
      <trkpt lat="45.68494" lon="3.12584">
        <ele>585.6</ele>
        <time>2022-02-25T14:34:14Z</time>
      </trkpt>
      <trkpt lat="45.68495" lon="3.12703">
        <ele>582.2</ele>
        <time>2022-02-25T14:34:34Z</time>
      </trkpt>
      <trkpt lat="45.68512" lon="3.12864">
        <ele>584.8</ele>
        <time>2022-02-25T14:34:59Z</time>
      </trkpt>
      <trkpt lat="45.68539" lon="3.1296">
        <ele>585.3</ele>
        <time>2022-02-25T14:35:19Z</time>
      </trkpt>
      <trkpt lat="45.68643" lon="3.12988">
        <ele>572.9</ele>
        <time>2022-02-25T14:35:44Z</time>
      </trkpt>
      <trkpt lat="45.6867" lon="3.13027">
        <ele>564</ele>
        <time>2022-02-25T14:36:05Z</time>
      </trkpt>
      <trkpt lat="45.68614" lon="3.13087">
        <ele>559.9</ele>
        <time>2022-02-25T14:36:30Z</time>
      </trkpt>
      <trkpt lat="45.68682" lon="3.13113">
        <ele>554.2</ele>
        <time>2022-02-25T14:36:50Z</time>
      </trkpt>
      <trkpt lat="45.68695" lon="3.13364">
        <ele>520.7</ele>
        <time>2022-02-25T14:37:15Z</time>
      </trkpt>
      <trkpt lat="45.68707" lon="3.13388">
        <ele>517.6</ele>
        <time>2022-02-25T14:37:35Z</time>
      </trkpt>
      <trkpt lat="45.6872" lon="3.13607">
        <ele>492.4</ele>
        <time>2022-02-25T14:38:02Z</time>
      </trkpt>
      <trkpt lat="45.68728" lon="3.13697">
        <ele>479.7</ele>
        <time>2022-02-25T14:38:23Z</time>
      </trkpt>
      <trkpt lat="45.68737" lon="3.13812">
        <ele>470.7</ele>
        <time>2022-02-25T14:38:56Z</time>
      </trkpt>
      <trkpt lat="45.68688" lon="3.13839">
        <ele>467.4</ele>
        <time>2022-02-25T14:39:16Z</time>
      </trkpt>
      <trkpt lat="45.68551" lon="3.13911">
        <ele>461.8</ele>
        <time>2022-02-25T14:39:41Z</time>
      </trkpt>
      <trkpt lat="45.68497" lon="3.14177">
        <ele>444.5</ele>
        <time>2022-02-25T14:40:01Z</time>
      </trkpt>
      <trkpt lat="45.68463" lon="3.14355">
        <ele>438</ele>
        <time>2022-02-25T14:40:26Z</time>
      </trkpt>
      <trkpt lat="45.6841" lon="3.14453">
        <ele>439.8</ele>
        <time>2022-02-25T14:40:46Z</time>
      </trkpt>
      <trkpt lat="45.68407" lon="3.14615">
        <ele>451.3</ele>
        <time>2022-02-25T14:41:11Z</time>
      </trkpt>
      <trkpt lat="45.68399" lon="3.14679">
        <ele>455.2</ele>
        <time>2022-02-25T14:41:31Z</time>
      </trkpt>
      <trkpt lat="45.68376" lon="3.14786">
        <ele>462.2</ele>
        <time>2022-02-25T14:41:56Z</time>
      </trkpt>
      <trkpt lat="45.68343" lon="3.14843">
        <ele>469.5</ele>
        <time>2022-02-25T14:42:16Z</time>
      </trkpt>
      <trkpt lat="45.68309" lon="3.14902">
        <ele>478.6</ele>
        <time>2022-02-25T14:42:41Z</time>
      </trkpt>
      <trkpt lat="45.68266" lon="3.14947">
        <ele>483.2</ele>
        <time>2022-02-25T14:43:01Z</time>
      </trkpt>
      <trkpt lat="45.68221" lon="3.15014">
        <ele>488.2</ele>
        <time>2022-02-25T14:43:26Z</time>
      </trkpt>
      <trkpt lat="45.68188" lon="3.15071">
        <ele>492.8</ele>
        <time>2022-02-25T14:43:46Z</time>
      </trkpt>
      <trkpt lat="45.68214" lon="3.15222">
        <ele>490.5</ele>
        <time>2022-02-25T14:44:11Z</time>
      </trkpt>
      <trkpt lat="45.68283" lon="3.15244">
        <ele>484.6</ele>
        <time>2022-02-25T14:44:31Z</time>
      </trkpt>
      <trkpt lat="45.68406" lon="3.15276">
        <ele>480.6</ele>
        <time>2022-02-25T14:44:56Z</time>
      </trkpt>
      <trkpt lat="45.68526" lon="3.15272">
        <ele>468</ele>
        <time>2022-02-25T14:45:16Z</time>
      </trkpt>
      <trkpt lat="45.68553" lon="3.15412">
        <ele>466.4</ele>
        <time>2022-02-25T14:45:41Z</time>
      </trkpt>
      <trkpt lat="45.6861" lon="3.15511">
        <ele>459.6</ele>
        <time>2022-02-25T14:46:01Z</time>
      </trkpt>
      <trkpt lat="45.6865" lon="3.15741">
        <ele>455</ele>
        <time>2022-02-25T14:46:26Z</time>
      </trkpt>
      <trkpt lat="45.68616" lon="3.15999">
        <ele>448.3</ele>
      </trkpt>
      <trkpt lat="45.68581" lon="3.16183">
        <ele>450.1</ele>
        <time>2022-02-25T14:47:36Z</time>
      </trkpt>
      <trkpt lat="45.68499" lon="3.16326">
        <ele>451.4</ele>
        <time>2022-02-25T14:47:56Z</time>
      </trkpt>
      <trkpt lat="45.68459" lon="3.16481">
        <ele>452</ele>
        <time>2022-02-25T14:48:21Z</time>
      </trkpt>
      <trkpt lat="45.68528" lon="3.16443">
        <ele>444</ele>
        <time>2022-02-25T14:48:41Z</time>
      </trkpt>
      <trkpt lat="45.6873" lon="3.16267">
        <ele>427</ele>
        <time>2022-02-25T14:49:06Z</time>
      </trkpt>
      <trkpt lat="45.68677" lon="3.16428">
        <ele>424.6</ele>
        <time>2022-02-25T14:49:29Z</time>
      </trkpt>
      <trkpt lat="45.68684" lon="3.1652">
        <ele>424.7</ele>
        <time>2022-02-25T14:49:54Z</time>
      </trkpt>
      <trkpt lat="45.68697" lon="3.16565">
        <ele>420.6</ele>
      </trkpt>
      <trkpt lat="45.68662" lon="3.16799">
        <ele>411.5</ele>
        <time>2022-02-25T14:50:14Z</time>
      </trkpt>
      <trkpt lat="45.68716" lon="3.16812">
        <ele>407.2</ele>
        <time>2022-02-25T14:50:39Z</time>
      </trkpt>
      <trkpt lat="45.68832" lon="3.16837">
        <ele>400</ele>
        <time>2022-02-25T14:50:59Z</time>
      </trkpt>
      <trkpt lat="45.68964" lon="3.16856">
        <ele>396</ele>
        <time>2022-02-25T14:51:24Z</time>
      </trkpt>
      <trkpt lat="45.69066" lon="3.16877">
        <ele>393.6</ele>
        <time>2022-02-25T14:51:44Z</time>
      </trkpt>
      <trkpt lat="45.69138" lon="3.16918">
        <ele>391</ele>
        <time>2022-02-25T14:52:33Z</time>
      </trkpt>
      <trkpt lat="45.69165" lon="3.17087">
        <ele>385.1</ele>
        <time>2022-02-25T14:52:53Z</time>
      </trkpt>
      <trkpt lat="45.69188" lon="3.1728">
        <ele>384.2</ele>
        <time>2022-02-25T14:53:18Z</time>
      </trkpt>
      <trkpt lat="45.69206" lon="3.17426">
        <ele>385.7</ele>
        <time>2022-02-25T14:53:38Z</time>
      </trkpt>
      <trkpt lat="45.69302" lon="3.17416">
        <ele>384.1</ele>
        <time>2022-02-25T14:54:03Z</time>
      </trkpt>
      <trkpt lat="45.69416" lon="3.17424">
        <ele>379.3</ele>
        <time>2022-02-25T14:54:23Z</time>
      </trkpt>
      <trkpt lat="45.69565" lon="3.17424">
        <ele>377.3</ele>
        <time>2022-02-25T14:54:48Z</time>
      </trkpt>
      <trkpt lat="45.69679" lon="3.17425">
        <ele>374.4</ele>
        <time>2022-02-25T14:55:08Z</time>
      </trkpt>
      <trkpt lat="45.69828" lon="3.17437">
        <ele>371.5</ele>
        <time>2022-02-25T14:55:33Z</time>
      </trkpt>
      <trkpt lat="45.6994" lon="3.17443">
        <ele>370.1</ele>
        <time>2022-02-25T14:55:53Z</time>
      </trkpt>
      <trkpt lat="45.70094" lon="3.17414">
        <ele>366.5</ele>
        <time>2022-02-25T14:56:18Z</time>
      </trkpt>
      <trkpt lat="45.70207" lon="3.17401">
        <ele>363.7</ele>
        <time>2022-02-25T14:56:38Z</time>
      </trkpt>
      <trkpt lat="45.70308" lon="3.17428">
        <ele>361.9</ele>
        <time>2022-02-25T14:57:03Z</time>
      </trkpt>
      <trkpt lat="45.70389" lon="3.17611">
        <ele>361</ele>
        <time>2022-02-25T14:57:23Z</time>
      </trkpt>
      <trkpt lat="45.70485" lon="3.17762">
        <ele>359.3</ele>
        <time>2022-02-25T14:57:48Z</time>
      </trkpt>
      <trkpt lat="45.70554" lon="3.17878">
        <ele>358.1</ele>
        <time>2022-02-25T14:58:08Z</time>
      </trkpt>
      <trkpt lat="45.70649" lon="3.18018">
        <ele>357</ele>
        <time>2022-02-25T14:58:33Z</time>
      </trkpt>
      <trkpt lat="45.70684" lon="3.18101">
        <ele>356.4</ele>
        <time>2022-02-25T14:59:52Z</time>
      </trkpt>
      <trkpt lat="45.70724" lon="3.1823">
        <ele>356.9</ele>
        <time>2022-02-25T15:00:24Z</time>
      </trkpt>
      <trkpt lat="45.70786" lon="3.18225">
        <ele>355.6</ele>
        <time>2022-02-25T15:00:44Z</time>
      </trkpt>
      <trkpt lat="45.70913" lon="3.1823">
        <ele>355</ele>
        <time>2022-02-25T15:01:09Z</time>
      </trkpt>
      <trkpt lat="45.71029" lon="3.18277">
        <ele>354.9</ele>
        <time>2022-02-25T15:01:29Z</time>
      </trkpt>
      <trkpt lat="45.71071" lon="3.18378">
        <ele>356.3</ele>
        <time>2022-02-25T15:01:54Z</time>
      </trkpt>
      <trkpt lat="45.71056" lon="3.18525">
        <ele>356</ele>
        <time>2022-02-25T15:02:19Z</time>
      </trkpt>
      <trkpt lat="45.71045" lon="3.1865">
        <ele>359.3</ele>
        <time>2022-02-25T15:02:39Z</time>
      </trkpt>
      <trkpt lat="45.71093" lon="3.1869">
        <ele>360.2</ele>
        <time>2022-02-25T15:03:05Z</time>
      </trkpt>
      <trkpt lat="45.71112" lon="3.18692">
        <ele>360.7</ele>
        <time>2022-02-25T15:03:25Z</time>
      </trkpt>
    </trkseg>
  </trk>
</gpx>